sensor_id;sensor_type;location;lat;lon;timestamp;P1;durP1;ratioP1;P2;durP2;ratioP2
24008;SDS011;12217;50.792;4.372;2023-02-24T00:01:22;23.23;;;5.22;;
24008;SDS011;12217;50.792;4.372;2023-02-24T00:03:56;32.15;;;5.20;;
24008;SDS011;12217;50.792;4.372;2023-02-24T00:06:24;27.37;;;4.87;;
24008;SDS011;12217;50.792;4.372;2023-02-24T00:09:00;23.08;;;5.45;;
24008;SDS011;12217;50.792;4.372;2023-02-24T00:11:41;23.83;;;4.78;;
24008;SDS011;12217;50.792;4.372;2023-02-24T00:14:09;22.02;;;4.05;;
24008;SDS011;12217;50.792;4.372;2023-02-24T00:16:40;27.90;;;5.00;;
24008;SDS011;12217;50.792;4.372;2023-02-24T00:19:06;23.23;;;4.80;;
24008;SDS011;12217;50.792;4.372;2023-02-24T00:21:33;32.63;;;5.78;;
24008;SDS011;12217;50.792;4.372;2023-02-24T00:23:59;22.30;;;4.63;;
24008;SDS011;12217;50.792;4.372;2023-02-24T00:26:25;29.58;;;4.72;;
24008;SDS011;12217;50.792;4.372;2023-02-24T00:28:57;26.95;;;4.65;;
24008;SDS011;12217;50.792;4.372;2023-02-24T00:31:24;29.20;;;4.78;;
24008;SDS011;12217;50.792;4.372;2023-02-24T00:33:54;27.10;;;5.07;;
24008;SDS011;12217;50.792;4.372;2023-02-24T00:36:21;25.52;;;4.72;;
24008;SDS011;12217;50.792;4.372;2023-02-24T00:38:51;25.25;;;4.88;;
24008;SDS011;12217;50.792;4.372;2023-02-24T00:41:26;22.95;;;4.55;;
24008;SDS011;12217;50.792;4.372;2023-02-24T00:43:53;26.83;;;4.60;;
24008;SDS011;12217;50.792;4.372;2023-02-24T00:46:21;25.77;;;5.57;;
24008;SDS011;12217;50.792;4.372;2023-02-24T00:48:50;27.67;;;4.30;;
24008;SDS011;12217;50.792;4.372;2023-02-24T00:51:20;24.23;;;4.03;;
24008;SDS011;12217;50.792;4.372;2023-02-24T00:53:52;26.95;;;5.18;;
24008;SDS011;12217;50.792;4.372;2023-02-24T00:56:20;26.80;;;4.55;;
24008;SDS011;12217;50.792;4.372;2023-02-24T00:58:47;24.27;;;4.50;;
24008;SDS011;12217;50.792;4.372;2023-02-24T01:01:14;26.20;;;4.45;;
24008;SDS011;12217;50.792;4.372;2023-02-24T01:03:42;22.98;;;4.63;;
24008;SDS011;12217;50.792;4.372;2023-02-24T01:06:09;23.63;;;5.15;;
24008;SDS011;12217;50.792;4.372;2023-02-24T01:08:37;19.05;;;3.83;;
24008;SDS011;12217;50.792;4.372;2023-02-24T01:11:04;21.75;;;5.15;;
24008;SDS011;12217;50.792;4.372;2023-02-24T01:13:49;27.73;;;4.88;;
24008;SDS011;12217;50.792;4.372;2023-02-24T01:16:15;28.17;;;4.35;;
24008;SDS011;12217;50.792;4.372;2023-02-24T01:18:45;22.98;;;4.68;;
24008;SDS011;12217;50.792;4.372;2023-02-24T01:21:17;27.13;;;4.15;;
24008;SDS011;12217;50.792;4.372;2023-02-24T01:23:47;32.88;;;5.85;;
24008;SDS011;12217;50.792;4.372;2023-02-24T01:26:14;25.65;;;5.00;;
24008;SDS011;12217;50.792;4.372;2023-02-24T01:28:40;25.33;;;5.07;;
24008;SDS011;12217;50.792;4.372;2023-02-24T01:31:07;20.00;;;3.75;;
24008;SDS011;12217;50.792;4.372;2023-02-24T01:33:33;26.85;;;4.80;;
24008;SDS011;12217;50.792;4.372;2023-02-24T01:36:07;27.38;;;5.28;;
24008;SDS011;12217;50.792;4.372;2023-02-24T01:38:35;29.73;;;4.97;;
24008;SDS011;12217;50.792;4.372;2023-02-24T01:41:01;23.90;;;4.43;;
24008;SDS011;12217;50.792;4.372;2023-02-24T01:43:29;24.98;;;4.45;;
24008;SDS011;12217;50.792;4.372;2023-02-24T01:45:56;24.92;;;4.20;;
24008;SDS011;12217;50.792;4.372;2023-02-24T01:48:21;25.33;;;4.53;;
24008;SDS011;12217;50.792;4.372;2023-02-24T01:50:48;23.45;;;4.15;;
24008;SDS011;12217;50.792;4.372;2023-02-24T01:53:15;21.63;;;4.47;;
24008;SDS011;12217;50.792;4.372;2023-02-24T01:55:42;22.48;;;4.22;;
24008;SDS011;12217;50.792;4.372;2023-02-24T01:58:25;28.38;;;4.80;;
24008;SDS011;12217;50.792;4.372;2023-02-24T02:00:54;25.80;;;5.18;;
24008;SDS011;12217;50.792;4.372;2023-02-24T02:05:58;28.98;;;4.95;;
24008;SDS011;12217;50.792;4.372;2023-02-24T02:08:25;26.48;;;4.20;;
24008;SDS011;12217;50.792;4.372;2023-02-24T02:10:52;28.33;;;5.55;;
24008;SDS011;12217;50.792;4.372;2023-02-24T02:13:23;27.55;;;4.50;;
24008;SDS011;12217;50.792;4.372;2023-02-24T02:29:39;25.88;;;6.25;;
24008;SDS011;12217;50.792;4.372;2023-02-24T02:37:54;31.40;;;5.43;;
24008;SDS011;12217;50.792;4.372;2023-02-24T02:40:22;25.88;;;6.28;;
24008;SDS011;12217;50.792;4.372;2023-02-24T02:43:01;22.25;;;6.07;;
24008;SDS011;12217;50.792;4.372;2023-02-24T02:45:42;26.73;;;6.55;;
24008;SDS011;12217;50.792;4.372;2023-02-24T02:48:54;24.02;;;6.65;;
24008;SDS011;12217;50.792;4.372;2023-02-24T02:51:20;23.25;;;5.55;;
24008;SDS011;12217;50.792;4.372;2023-02-24T02:56:50;22.23;;;5.72;;
24008;SDS011;12217;50.792;4.372;2023-02-24T02:59:25;25.52;;;5.72;;
24008;SDS011;12217;50.792;4.372;2023-02-24T03:01:54;22.15;;;5.00;;
24008;SDS011;12217;50.792;4.372;2023-02-24T03:04:35;28.88;;;5.63;;
24008;SDS011;12217;50.792;4.372;2023-02-24T03:07:15;22.92;;;5.72;;
24008;SDS011;12217;50.792;4.372;2023-02-24T03:09:45;25.90;;;5.93;;
24008;SDS011;12217;50.792;4.372;2023-02-24T03:12:16;23.23;;;5.43;;
24008;SDS011;12217;50.792;4.372;2023-02-24T03:14:46;28.23;;;5.65;;
24008;SDS011;12217;50.792;4.372;2023-02-24T03:17:16;26.48;;;6.25;;
24008;SDS011;12217;50.792;4.372;2023-02-24T03:19:46;24.92;;;5.65;;
24008;SDS011;12217;50.792;4.372;2023-02-24T03:22:30;23.17;;;5.10;;
24008;SDS011;12217;50.792;4.372;2023-02-24T03:25:00;18.05;;;5.18;;
24008;SDS011;12217;50.792;4.372;2023-02-24T03:27:37;19.80;;;4.35;;
24008;SDS011;12217;50.792;4.372;2023-02-24T03:31:06;22.15;;;4.78;;
24008;SDS011;12217;50.792;4.372;2023-02-24T03:33:38;23.88;;;4.32;;
24008;SDS011;12217;50.792;4.372;2023-02-24T03:36:09;22.97;;;4.43;;
24008;SDS011;12217;50.792;4.372;2023-02-24T03:38:39;20.55;;;3.88;;
24008;SDS011;12217;50.792;4.372;2023-02-24T03:41:06;23.58;;;3.92;;
24008;SDS011;12217;50.792;4.372;2023-02-24T03:43:45;13.57;;;3.40;;
24008;SDS011;12217;50.792;4.372;2023-02-24T03:46:14;16.75;;;3.78;;
24008;SDS011;12217;50.792;4.372;2023-02-24T03:48:47;18.65;;;4.13;;
24008;SDS011;12217;50.792;4.372;2023-02-24T03:51:19;21.58;;;4.07;;
24008;SDS011;12217;50.792;4.372;2023-02-24T03:54:10;23.73;;;4.05;;
24008;SDS011;12217;50.792;4.372;2023-02-24T04:02:22;18.70;;;3.85;;
24008;SDS011;12217;50.792;4.372;2023-02-24T04:13:13;21.40;;;3.97;;
24008;SDS011;12217;50.792;4.372;2023-02-24T04:15:53;17.23;;;3.58;;
24008;SDS011;12217;50.792;4.372;2023-02-24T04:18:30;16.52;;;3.70;;
24008;SDS011;12217;50.792;4.372;2023-02-24T04:20:57;17.33;;;3.58;;
24008;SDS011;12217;50.792;4.372;2023-02-24T04:23:28;15.90;;;3.22;;
24008;SDS011;12217;50.792;4.372;2023-02-24T04:25:56;16.10;;;3.38;;
24008;SDS011;12217;50.792;4.372;2023-02-24T04:28:23;18.65;;;3.40;;
24008;SDS011;12217;50.792;4.372;2023-02-24T04:30:52;17.83;;;2.95;;
24008;SDS011;12217;50.792;4.372;2023-02-24T04:33:21;12.20;;;3.30;;
24008;SDS011;12217;50.792;4.372;2023-02-24T04:35:47;16.77;;;3.13;;
24008;SDS011;12217;50.792;4.372;2023-02-24T04:38:14;17.00;;;3.13;;
24008;SDS011;12217;50.792;4.372;2023-02-24T04:40:43;19.13;;;3.00;;
24008;SDS011;12217;50.792;4.372;2023-02-24T04:43:09;19.63;;;3.80;;
24008;SDS011;12217;50.792;4.372;2023-02-24T04:45:35;17.52;;;2.90;;
24008;SDS011;12217;50.792;4.372;2023-02-24T04:48:04;20.52;;;3.65;;
24008;SDS011;12217;50.792;4.372;2023-02-24T04:50:36;12.43;;;3.00;;
24008;SDS011;12217;50.792;4.372;2023-02-24T04:53:05;15.73;;;3.20;;
24008;SDS011;12217;50.792;4.372;2023-02-24T04:55:37;17.80;;;3.53;;
24008;SDS011;12217;50.792;4.372;2023-02-24T04:58:15;19.98;;;3.75;;
24008;SDS011;12217;50.792;4.372;2023-02-24T05:00:48;17.55;;;3.15;;
24008;SDS011;12217;50.792;4.372;2023-02-24T05:03:16;19.73;;;3.40;;
24008;SDS011;12217;50.792;4.372;2023-02-24T05:05:47;17.48;;;3.60;;
24008;SDS011;12217;50.792;4.372;2023-02-24T05:08:20;15.02;;;3.28;;
24008;SDS011;12217;50.792;4.372;2023-02-24T05:10:46;19.30;;;3.88;;
24008;SDS011;12217;50.792;4.372;2023-02-24T05:13:14;19.42;;;3.47;;
24008;SDS011;12217;50.792;4.372;2023-02-24T05:15:42;21.48;;;4.28;;
24008;SDS011;12217;50.792;4.372;2023-02-24T05:18:14;16.25;;;3.55;;
24008;SDS011;12217;50.792;4.372;2023-02-24T05:20:45;19.33;;;3.50;;
24008;SDS011;12217;50.792;4.372;2023-02-24T05:23:32;23.40;;;4.13;;
24008;SDS011;12217;50.792;4.372;2023-02-24T05:26:00;16.05;;;3.35;;
24008;SDS011;12217;50.792;4.372;2023-02-24T05:28:27;13.80;;;3.20;;
24008;SDS011;12217;50.792;4.372;2023-02-24T05:33:32;22.27;;;3.85;;
24008;SDS011;12217;50.792;4.372;2023-02-24T05:36:01;15.43;;;3.38;;
24008;SDS011;12217;50.792;4.372;2023-02-24T05:38:30;18.05;;;3.78;;
24008;SDS011;12217;50.792;4.372;2023-02-24T05:41:02;14.98;;;3.35;;
24008;SDS011;12217;50.792;4.372;2023-02-24T05:43:31;14.20;;;3.63;;
24008;SDS011;12217;50.792;4.372;2023-02-24T05:45:59;14.48;;;3.20;;
24008;SDS011;12217;50.792;4.372;2023-02-24T05:48:31;21.75;;;4.35;;
24008;SDS011;12217;50.792;4.372;2023-02-24T05:51:00;18.10;;;3.80;;
24008;SDS011;12217;50.792;4.372;2023-02-24T05:53:28;16.20;;;3.45;;
24008;SDS011;12217;50.792;4.372;2023-02-24T05:55:54;16.33;;;3.78;;
24008;SDS011;12217;50.792;4.372;2023-02-24T05:58:19;15.52;;;3.78;;
24008;SDS011;12217;50.792;4.372;2023-02-24T06:00:47;14.93;;;3.63;;
24008;SDS011;12217;50.792;4.372;2023-02-24T06:03:14;12.18;;;3.20;;
24008;SDS011;12217;50.792;4.372;2023-02-24T06:05:41;21.73;;;4.05;;
24008;SDS011;12217;50.792;4.372;2023-02-24T06:08:08;16.90;;;3.47;;
24008;SDS011;12217;50.792;4.372;2023-02-24T06:10:35;16.77;;;4.15;;
24008;SDS011;12217;50.792;4.372;2023-02-24T06:13:04;14.27;;;3.40;;
24008;SDS011;12217;50.792;4.372;2023-02-24T06:15:31;19.75;;;3.97;;
24008;SDS011;12217;50.792;4.372;2023-02-24T06:17:58;21.83;;;4.88;;
24008;SDS011;12217;50.792;4.372;2023-02-24T06:20:27;17.73;;;3.95;;
24008;SDS011;12217;50.792;4.372;2023-02-24T06:22:54;13.13;;;3.30;;
24008;SDS011;12217;50.792;4.372;2023-02-24T06:25:22;13.05;;;4.18;;
24008;SDS011;12217;50.792;4.372;2023-02-24T06:27:50;18.02;;;3.58;;
24008;SDS011;12217;50.792;4.372;2023-02-24T06:30:22;20.75;;;6.40;;
24008;SDS011;12217;50.792;4.372;2023-02-24T06:32:49;22.60;;;6.65;;
24008;SDS011;12217;50.792;4.372;2023-02-24T06:35:16;25.52;;;7.65;;
24008;SDS011;12217;50.792;4.372;2023-02-24T06:37:43;25.00;;;7.78;;
24008;SDS011;12217;50.792;4.372;2023-02-24T06:40:10;22.02;;;6.07;;
24008;SDS011;12217;50.792;4.372;2023-02-24T06:42:45;20.08;;;5.97;;
24008;SDS011;12217;50.792;4.372;2023-02-24T06:45:12;26.08;;;7.47;;
24008;SDS011;12217;50.792;4.372;2023-02-24T06:47:39;20.45;;;6.18;;
24008;SDS011;12217;50.792;4.372;2023-02-24T06:50:07;18.50;;;6.03;;
24008;SDS011;12217;50.792;4.372;2023-02-24T06:52:34;21.65;;;6.43;;
24008;SDS011;12217;50.792;4.372;2023-02-24T06:55:00;19.90;;;7.43;;
24008;SDS011;12217;50.792;4.372;2023-02-24T06:57:29;20.85;;;7.38;;
24008;SDS011;12217;50.792;4.372;2023-02-24T06:59:58;30.27;;;7.63;;
24008;SDS011;12217;50.792;4.372;2023-02-24T07:02:25;22.92;;;7.10;;
24008;SDS011;12217;50.792;4.372;2023-02-24T07:07:22;22.70;;;7.93;;
24008;SDS011;12217;50.792;4.372;2023-02-24T07:09:48;21.73;;;7.00;;
24008;SDS011;12217;50.792;4.372;2023-02-24T07:12:15;23.98;;;7.50;;
24008;SDS011;12217;50.792;4.372;2023-02-24T07:14:45;24.67;;;7.82;;
24008;SDS011;12217;50.792;4.372;2023-02-24T07:17:15;23.58;;;7.43;;
24008;SDS011;12217;50.792;4.372;2023-02-24T07:19:43;22.65;;;7.60;;
24008;SDS011;12217;50.792;4.372;2023-02-24T07:22:09;26.08;;;7.78;;
24008;SDS011;12217;50.792;4.372;2023-02-24T07:24:35;20.90;;;7.28;;
24008;SDS011;12217;50.792;4.372;2023-02-24T07:27:03;24.00;;;7.82;;
24008;SDS011;12217;50.792;4.372;2023-02-24T07:29:31;23.25;;;7.22;;
24008;SDS011;12217;50.792;4.372;2023-02-24T07:32:01;24.08;;;7.47;;
24008;SDS011;12217;50.792;4.372;2023-02-24T07:34:30;20.88;;;7.13;;
24008;SDS011;12217;50.792;4.372;2023-02-24T07:36:56;23.20;;;7.47;;
24008;SDS011;12217;50.792;4.372;2023-02-24T07:39:22;24.60;;;8.00;;
24008;SDS011;12217;50.792;4.372;2023-02-24T07:41:49;26.45;;;8.45;;
24008;SDS011;12217;50.792;4.372;2023-02-24T07:44:16;24.88;;;8.63;;
24008;SDS011;12217;50.792;4.372;2023-02-24T07:46:44;23.58;;;7.72;;
24008;SDS011;12217;50.792;4.372;2023-02-24T07:49:11;23.90;;;8.10;;
24008;SDS011;12217;50.792;4.372;2023-02-24T07:51:39;19.77;;;7.15;;
24008;SDS011;12217;50.792;4.372;2023-02-24T07:54:05;21.00;;;7.97;;
24008;SDS011;12217;50.792;4.372;2023-02-24T07:56:33;23.17;;;7.53;;
24008;SDS011;12217;50.792;4.372;2023-02-24T07:59:00;21.70;;;7.13;;
24008;SDS011;12217;50.792;4.372;2023-02-24T08:01:28;28.48;;;7.05;;
24008;SDS011;12217;50.792;4.372;2023-02-24T08:04:03;22.88;;;6.47;;
24008;SDS011;12217;50.792;4.372;2023-02-24T08:06:41;32.15;;;8.18;;
24008;SDS011;12217;50.792;4.372;2023-02-24T08:09:11;21.65;;;7.80;;
24008;SDS011;12217;50.792;4.372;2023-02-24T08:11:49;23.95;;;6.95;;
24008;SDS011;12217;50.792;4.372;2023-02-24T08:14:17;21.98;;;7.18;;
24008;SDS011;12217;50.792;4.372;2023-02-24T08:16:49;19.63;;;7.00;;
24008;SDS011;12217;50.792;4.372;2023-02-24T08:19:17;20.88;;;7.00;;
24008;SDS011;12217;50.792;4.372;2023-02-24T08:21:46;19.90;;;6.93;;
24008;SDS011;12217;50.792;4.372;2023-02-24T08:24:23;22.63;;;5.97;;
24008;SDS011;12217;50.792;4.372;2023-02-24T08:26:54;16.65;;;5.65;;
24008;SDS011;12217;50.792;4.372;2023-02-24T08:29:30;16.00;;;5.10;;
24008;SDS011;12217;50.792;4.372;2023-02-24T08:32:04;19.17;;;5.35;;
24008;SDS011;12217;50.792;4.372;2023-02-24T08:34:30;21.67;;;5.20;;
24008;SDS011;12217;50.792;4.372;2023-02-24T08:36:56;24.15;;;5.00;;
24008;SDS011;12217;50.792;4.372;2023-02-24T08:39:22;21.45;;;5.25;;
24008;SDS011;12217;50.792;4.372;2023-02-24T08:41:48;14.55;;;4.40;;
24008;SDS011;12217;50.792;4.372;2023-02-24T08:44:18;16.33;;;4.68;;
24008;SDS011;12217;50.792;4.372;2023-02-24T08:46:45;16.23;;;5.05;;
24008;SDS011;12217;50.792;4.372;2023-02-24T08:49:15;17.80;;;5.45;;
24008;SDS011;12217;50.792;4.372;2023-02-24T08:51:42;19.95;;;5.38;;
24008;SDS011;12217;50.792;4.372;2023-02-24T08:54:12;23.05;;;4.85;;
24008;SDS011;12217;50.792;4.372;2023-02-24T08:56:42;17.63;;;5.00;;
24008;SDS011;12217;50.792;4.372;2023-02-24T08:59:13;17.52;;;4.22;;
24008;SDS011;12217;50.792;4.372;2023-02-24T09:01:59;16.42;;;4.90;;
24008;SDS011;12217;50.792;4.372;2023-02-24T09:04:47;19.05;;;4.57;;
24008;SDS011;12217;50.792;4.372;2023-02-24T09:09:53;13.60;;;3.90;;
24008;SDS011;12217;50.792;4.372;2023-02-24T09:12:23;19.90;;;3.92;;
24008;SDS011;12217;50.792;4.372;2023-02-24T09:14:54;16.85;;;3.45;;
24008;SDS011;12217;50.792;4.372;2023-02-24T09:17:28;15.75;;;4.05;;
24008;SDS011;12217;50.792;4.372;2023-02-24T09:20:05;13.23;;;3.22;;
24008;SDS011;12217;50.792;4.372;2023-02-24T09:22:52;18.58;;;4.22;;
24008;SDS011;12217;50.792;4.372;2023-02-24T09:25:27;13.57;;;3.25;;
24008;SDS011;12217;50.792;4.372;2023-02-24T09:28:20;15.38;;;3.50;;
24008;SDS011;12217;50.792;4.372;2023-02-24T09:36:13;15.75;;;3.47;;
24008;SDS011;12217;50.792;4.372;2023-02-24T09:38:53;13.10;;;2.92;;
24008;SDS011;12217;50.792;4.372;2023-02-24T09:49:11;16.85;;;3.38;;
24008;SDS011;12217;50.792;4.372;2023-02-24T09:51:41;13.10;;;3.25;;
24008;SDS011;12217;50.792;4.372;2023-02-24T09:54:11;14.63;;;2.92;;
24008;SDS011;12217;50.792;4.372;2023-02-24T09:56:41;12.43;;;3.28;;
24008;SDS011;12217;50.792;4.372;2023-02-24T09:59:38;7.90;;;2.72;;
24008;SDS011;12217;50.792;4.372;2023-02-24T10:05:11;11.13;;;3.05;;
24008;SDS011;12217;50.792;4.372;2023-02-24T10:07:46;16.08;;;3.30;;
24008;SDS011;12217;50.792;4.372;2023-02-24T10:15:37;15.23;;;3.10;;
24008;SDS011;12217;50.792;4.372;2023-02-24T10:18:28;13.45;;;3.42;;
24008;SDS011;12217;50.792;4.372;2023-02-24T10:20:56;13.27;;;3.50;;
24008;SDS011;12217;50.792;4.372;2023-02-24T10:26:41;13.13;;;3.30;;
24008;SDS011;12217;50.792;4.372;2023-02-24T10:31:55;15.85;;;3.38;;
24008;SDS011;12217;50.792;4.372;2023-02-24T10:34:41;10.98;;;3.25;;
24008;SDS011;12217;50.792;4.372;2023-02-24T10:37:13;12.80;;;3.83;;
24008;SDS011;12217;50.792;4.372;2023-02-24T10:39:43;13.82;;;3.53;;
24008;SDS011;12217;50.792;4.372;2023-02-24T10:42:25;12.63;;;3.33;;
24008;SDS011;12217;50.792;4.372;2023-02-24T10:45:07;13.27;;;3.65;;
24008;SDS011;12217;50.792;4.372;2023-02-24T10:47:51;14.15;;;3.90;;
24008;SDS011;12217;50.792;4.372;2023-02-24T10:50:23;14.15;;;4.38;;
24008;SDS011;12217;50.792;4.372;2023-02-24T10:53:05;14.90;;;3.95;;
24008;SDS011;12217;50.792;4.372;2023-02-24T10:58:57;10.20;;;3.63;;
24008;SDS011;12217;50.792;4.372;2023-02-24T11:01:24;10.77;;;3.95;;
24008;SDS011;12217;50.792;4.372;2023-02-24T11:04:07;14.55;;;4.00;;
24008;SDS011;12217;50.792;4.372;2023-02-24T11:07:10;11.40;;;3.42;;
24008;SDS011;12217;50.792;4.372;2023-02-24T11:09:48;17.42;;;3.80;;
24008;SDS011;12217;50.792;4.372;2023-02-24T11:12:43;7.85;;;3.80;;
24008;SDS011;12217;50.792;4.372;2023-02-24T11:15:37;13.10;;;3.60;;
24008;SDS011;12217;50.792;4.372;2023-02-24T11:18:35;11.38;;;4.05;;
24008;SDS011;12217;50.792;4.372;2023-02-24T11:21:03;11.15;;;3.92;;
24008;SDS011;12217;50.792;4.372;2023-02-24T11:23:36;12.18;;;3.88;;
24008;SDS011;12217;50.792;4.372;2023-02-24T11:26:13;12.10;;;4.00;;
24008;SDS011;12217;50.792;4.372;2023-02-24T11:34:17;15.70;;;4.05;;
24008;SDS011;12217;50.792;4.372;2023-02-24T11:42:38;19.58;;;4.53;;
24008;SDS011;12217;50.792;4.372;2023-02-24T11:48:04;12.95;;;4.65;;
24008;SDS011;12217;50.792;4.372;2023-02-24T11:53:19;14.60;;;4.20;;
24008;SDS011;12217;50.792;4.372;2023-02-24T11:55:48;10.35;;;4.28;;
24008;SDS011;12217;50.792;4.372;2023-02-24T11:58:27;10.35;;;4.35;;
24008;SDS011;12217;50.792;4.372;2023-02-24T12:00:58;11.45;;;4.05;;
24008;SDS011;12217;50.792;4.372;2023-02-24T12:03:35;16.10;;;4.40;;
24008;SDS011;12217;50.792;4.372;2023-02-24T12:06:27;10.68;;;4.05;;
24008;SDS011;12217;50.792;4.372;2023-02-24T12:09:00;17.08;;;4.70;;
24008;SDS011;12217;50.792;4.372;2023-02-24T12:11:42;12.18;;;4.25;;
24008;SDS011;12217;50.792;4.372;2023-02-24T12:14:18;14.40;;;4.00;;
24008;SDS011;12217;50.792;4.372;2023-02-24T12:16:55;17.83;;;4.60;;
24008;SDS011;12217;50.792;4.372;2023-02-24T12:22:18;15.43;;;5.10;;
24008;SDS011;12217;50.792;4.372;2023-02-24T12:24:47;12.10;;;4.57;;
24008;SDS011;12217;50.792;4.372;2023-02-24T12:29:57;15.85;;;4.43;;
24008;SDS011;12217;50.792;4.372;2023-02-24T12:46:26;12.65;;;4.60;;
24008;SDS011;12217;50.792;4.372;2023-02-24T13:00:02;15.07;;;4.40;;
24008;SDS011;12217;50.792;4.372;2023-02-24T13:05:31;8.15;;;4.30;;
24008;SDS011;12217;50.792;4.372;2023-02-24T13:08:17;12.95;;;5.05;;
24008;SDS011;12217;50.792;4.372;2023-02-24T13:13:40;11.27;;;4.85;;
24008;SDS011;12217;50.792;4.372;2023-02-24T13:16:13;13.45;;;5.22;;
24008;SDS011;12217;50.792;4.372;2023-02-24T13:18:38;12.70;;;5.65;;
24008;SDS011;12217;50.792;4.372;2023-02-24T13:23:50;18.25;;;6.10;;
24008;SDS011;12217;50.792;4.372;2023-02-24T13:26:24;12.75;;;5.28;;
24008;SDS011;12217;50.792;4.372;2023-02-24T13:29:00;16.98;;;5.15;;
24008;SDS011;12217;50.792;4.372;2023-02-24T13:31:37;11.98;;;6.05;;
24008;SDS011;12217;50.792;4.372;2023-02-24T13:36:57;11.40;;;5.68;;
24008;SDS011;12217;50.792;4.372;2023-02-24T13:39:24;16.45;;;6.05;;
24008;SDS011;12217;50.792;4.372;2023-02-24T13:42:00;13.63;;;5.38;;
24008;SDS011;12217;50.792;4.372;2023-02-24T13:44:31;13.73;;;6.10;;
24008;SDS011;12217;50.792;4.372;2023-02-24T13:49:55;14.55;;;6.15;;
24008;SDS011;12217;50.792;4.372;2023-02-24T14:03:30;15.20;;;7.32;;
24008;SDS011;12217;50.792;4.372;2023-02-24T14:05:58;14.73;;;6.30;;
24008;SDS011;12217;50.792;4.372;2023-02-24T14:08:44;12.63;;;6.93;;
24008;SDS011;12217;50.792;4.372;2023-02-24T14:11:15;16.30;;;8.10;;
24008;SDS011;12217;50.792;4.372;2023-02-24T14:13:47;15.60;;;8.35;;
24008;SDS011;12217;50.792;4.372;2023-02-24T14:16:17;17.40;;;9.18;;
24008;SDS011;12217;50.792;4.372;2023-02-24T14:18:59;15.75;;;9.18;;
24008;SDS011;12217;50.792;4.372;2023-02-24T14:21:27;19.27;;;9.80;;
24008;SDS011;12217;50.792;4.372;2023-02-24T14:24:01;21.55;;;11.73;;
24008;SDS011;12217;50.792;4.372;2023-02-24T14:26:41;19.88;;;11.52;;
24008;SDS011;12217;50.792;4.372;2023-02-24T14:29:12;20.92;;;11.65;;
24008;SDS011;12217;50.792;4.372;2023-02-24T14:31:45;17.73;;;12.65;;
24008;SDS011;12217;50.792;4.372;2023-02-24T14:34:15;21.10;;;13.97;;
24008;SDS011;12217;50.792;4.372;2023-02-24T14:36:44;22.45;;;14.57;;
24008;SDS011;12217;50.792;4.372;2023-02-24T14:41:44;23.33;;;14.32;;
24008;SDS011;12217;50.792;4.372;2023-02-24T14:46:52;24.58;;;14.57;;
24008;SDS011;12217;50.792;4.372;2023-02-24T14:49:22;22.95;;;14.35;;
24008;SDS011;12217;50.792;4.372;2023-02-24T14:52:37;20.80;;;13.50;;
24008;SDS011;12217;50.792;4.372;2023-02-24T14:54:53;20.33;;;14.55;;
24008;SDS011;12217;50.792;4.372;2023-02-24T14:57:25;27.25;;;15.18;;
24008;SDS011;12217;50.792;4.372;2023-02-24T14:59:55;23.30;;;15.57;;
24008;SDS011;12217;50.792;4.372;2023-02-24T15:02:34;20.50;;;15.60;;
24008;SDS011;12217;50.792;4.372;2023-02-24T15:05:07;21.40;;;14.20;;
24008;SDS011;12217;50.792;4.372;2023-02-24T15:07:35;22.60;;;15.38;;
24008;SDS011;12217;50.792;4.372;2023-02-24T15:10:02;25.13;;;14.20;;
24008;SDS011;12217;50.792;4.372;2023-02-24T15:17:29;24.08;;;14.73;;
24008;SDS011;12217;50.792;4.372;2023-02-24T15:19:56;18.02;;;14.07;;
24008;SDS011;12217;50.792;4.372;2023-02-24T15:22:24;27.23;;;15.10;;
24008;SDS011;12217;50.792;4.372;2023-02-24T15:24:51;18.98;;;14.27;;
24008;SDS011;12217;50.792;4.372;2023-02-24T15:27:21;18.35;;;12.93;;
24008;SDS011;12217;50.792;4.372;2023-02-24T15:29:58;21.88;;;14.30;;
24008;SDS011;12217;50.792;4.372;2023-02-24T15:32:30;27.38;;;15.15;;
24008;SDS011;12217;50.792;4.372;2023-02-24T15:34:57;19.85;;;14.00;;
24008;SDS011;12217;50.792;4.372;2023-02-24T15:37:28;22.02;;;15.30;;
24008;SDS011;12217;50.792;4.372;2023-02-24T15:40:15;17.23;;;12.60;;
24008;SDS011;12217;50.792;4.372;2023-02-24T15:42:48;19.33;;;12.82;;
24008;SDS011;12217;50.792;4.372;2023-02-24T15:45:27;21.58;;;13.38;;
24008;SDS011;12217;50.792;4.372;2023-02-24T15:47:57;18.35;;;12.90;;
24008;SDS011;12217;50.792;4.372;2023-02-24T15:50:24;14.93;;;12.13;;
24008;SDS011;12217;50.792;4.372;2023-02-24T15:52:51;15.65;;;11.85;;
24008;SDS011;12217;50.792;4.372;2023-02-24T15:55:17;15.18;;;12.65;;
24008;SDS011;12217;50.792;4.372;2023-02-24T15:57:44;17.35;;;12.60;;
24008;SDS011;12217;50.792;4.372;2023-02-24T16:00:13;19.77;;;12.50;;
24008;SDS011;12217;50.792;4.372;2023-02-24T16:02:41;14.25;;;11.23;;
24008;SDS011;12217;50.792;4.372;2023-02-24T16:05:13;19.17;;;13.52;;
24008;SDS011;12217;50.792;4.372;2023-02-24T16:07:40;15.20;;;12.68;;
24008;SDS011;12217;50.792;4.372;2023-02-24T16:10:22;16.17;;;12.30;;
24008;SDS011;12217;50.792;4.372;2023-02-24T16:12:56;14.90;;;11.35;;
24008;SDS011;12217;50.792;4.372;2023-02-24T16:15:32;15.15;;;12.02;;
24008;SDS011;12217;50.792;4.372;2023-02-24T16:18:03;20.25;;;12.82;;
24008;SDS011;12217;50.792;4.372;2023-02-24T16:20:30;14.00;;;12.40;;
24008;SDS011;12217;50.792;4.372;2023-02-24T16:22:57;15.95;;;12.50;;
24008;SDS011;12217;50.792;4.372;2023-02-24T16:25:26;18.92;;;12.55;;
24008;SDS011;12217;50.792;4.372;2023-02-24T16:27:53;16.98;;;13.23;;
24008;SDS011;12217;50.792;4.372;2023-02-24T16:30:22;17.40;;;13.48;;
24008;SDS011;12217;50.792;4.372;2023-02-24T16:32:55;15.98;;;13.20;;
24008;SDS011;12217;50.792;4.372;2023-02-24T16:35:22;15.68;;;13.23;;
24008;SDS011;12217;50.792;4.372;2023-02-24T16:37:48;21.40;;;13.80;;
24008;SDS011;12217;50.792;4.372;2023-02-24T16:40:25;18.92;;;14.32;;
24008;SDS011;12217;50.792;4.372;2023-02-24T16:42:54;20.27;;;14.63;;
24008;SDS011;12217;50.792;4.372;2023-02-24T16:45:20;17.00;;;13.18;;
24008;SDS011;12217;50.792;4.372;2023-02-24T16:47:50;18.90;;;13.68;;
24008;SDS011;12217;50.792;4.372;2023-02-24T16:50:21;21.17;;;14.32;;
24008;SDS011;12217;50.792;4.372;2023-02-24T16:52:50;18.83;;;14.93;;
24008;SDS011;12217;50.792;4.372;2023-02-24T16:55:16;19.27;;;14.23;;
24008;SDS011;12217;50.792;4.372;2023-02-24T16:57:42;19.30;;;14.10;;
24008;SDS011;12217;50.792;4.372;2023-02-24T17:00:08;23.35;;;17.13;;
24008;SDS011;12217;50.792;4.372;2023-02-24T17:02:35;24.70;;;14.90;;
24008;SDS011;12217;50.792;4.372;2023-02-24T17:05:01;23.75;;;16.55;;
24008;SDS011;12217;50.792;4.372;2023-02-24T17:07:27;28.00;;;17.30;;
24008;SDS011;12217;50.792;4.372;2023-02-24T17:09:52;23.05;;;16.02;;
24008;SDS011;12217;50.792;4.372;2023-02-24T17:12:19;22.30;;;14.63;;
24008;SDS011;12217;50.792;4.372;2023-02-24T17:14:45;20.13;;;14.32;;
24008;SDS011;12217;50.792;4.372;2023-02-24T17:17:11;25.02;;;14.38;;
24008;SDS011;12217;50.792;4.372;2023-02-24T17:19:37;24.25;;;13.55;;
24008;SDS011;12217;50.792;4.372;2023-02-24T17:22:03;23.75;;;12.63;;
24008;SDS011;12217;50.792;4.372;2023-02-24T17:24:28;24.33;;;11.98;;
24008;SDS011;12217;50.792;4.372;2023-02-24T17:26:55;22.10;;;10.88;;
24008;SDS011;12217;50.792;4.372;2023-02-24T17:29:23;20.85;;;11.98;;
24008;SDS011;12217;50.792;4.372;2023-02-24T17:31:49;21.02;;;10.82;;
24008;SDS011;12217;50.792;4.372;2023-02-24T17:34:14;23.00;;;9.65;;
24008;SDS011;12217;50.792;4.372;2023-02-24T17:36:40;22.00;;;9.68;;